createdAt,value
2022-10-26T00:01:43.106Z,83.10
2022-10-26T00:04:11.100Z,83.10
2022-10-26T00:06:38.996Z,83.10
2022-10-26T00:09:06.913Z,83.10
2022-10-26T00:11:34.776Z,83.10
2022-10-26T00:14:04.034Z,83.20
2022-10-26T00:16:31.915Z,83.20
2022-10-26T00:18:59.810Z,83.20
2022-10-26T00:21:28.742Z,83.20
2022-10-26T00:23:56.603Z,83.20
2022-10-26T00:26:24.480Z,83.20
2022-10-26T00:28:54.256Z,83.20
2022-10-26T00:31:23.496Z,83.20
2022-10-26T00:33:53.703Z,83.20
2022-10-26T00:36:23.501Z,83.40
2022-10-26T00:38:51.571Z,83.30
2022-10-26T00:41:20.134Z,83.40
2022-10-26T00:43:48.133Z,83.40
2022-10-26T00:46:17.817Z,83.40
2022-10-26T00:48:48.241Z,83.40
2022-10-26T00:51:19.221Z,83.40
2022-10-26T00:53:47.112Z,83.50
2022-10-26T00:56:15.912Z,83.50
2022-10-26T00:58:43.871Z,83.50
2022-10-26T01:01:11.812Z,83.50
2022-10-26T01:03:39.834Z,83.60
2022-10-26T01:06:09.546Z,83.50
2022-10-26T01:08:37.401Z,83.60
2022-10-26T01:11:05.475Z,83.60
2022-10-26T01:13:35.807Z,83.70
2022-10-26T01:16:25.270Z,83.90
2022-10-26T01:18:57.900Z,83.70
2022-10-26T01:21:39.697Z,83.70
2022-10-26T01:24:22.486Z,83.70
2022-10-26T01:26:59.561Z,83.60
2022-10-26T01:29:53.826Z,84.60
2022-10-26T01:32:24.599Z,83.60
2022-10-26T01:34:54.827Z,83.60
2022-10-26T01:37:24.590Z,83.60
2022-10-26T01:39:54.570Z,83.50
2022-10-26T01:42:22.886Z,83.50
2022-10-26T01:44:53.057Z,83.50
2022-10-26T01:47:21.147Z,83.50
2022-10-26T01:49:52.092Z,83.50
2022-10-26T01:52:20.134Z,83.50
2022-10-26T01:54:47.998Z,83.40
2022-10-26T01:57:17.351Z,83.40
2022-10-26T02:00:08.793Z,83.50
2022-10-26T02:02:50.034Z,83.40
2022-10-26T02:05:31.725Z,83.40
2022-10-26T02:08:05.377Z,83.50
2022-10-26T02:10:38.689Z,83.50
2022-10-26T02:13:10.981Z,83.50
2022-10-26T02:15:42.668Z,83.60
2022-10-26T02:18:14.978Z,83.60
2022-10-26T02:20:45.203Z,83.70
2022-10-26T02:23:13.068Z,83.70
2022-10-26T02:25:42.158Z,83.70
2022-10-26T02:28:11.214Z,83.70
2022-10-26T02:30:39.107Z,83.80
2022-10-26T02:33:06.991Z,83.80
2022-10-26T02:35:35.595Z,83.80
2022-10-26T02:38:08.459Z,83.70
2022-10-26T02:40:36.373Z,83.90
2022-10-26T02:43:05.785Z,83.90
2022-10-26T02:45:35.833Z,83.90
2022-10-26T02:48:03.768Z,84.00
2022-10-26T02:50:34.205Z,84.00
2022-10-26T02:53:06.622Z,84.00
2022-10-26T02:55:37.660Z,84.00
2022-10-26T02:58:07.637Z,84.10
2022-10-26T03:00:35.509Z,84.10
2022-10-26T03:03:03.715Z,85.10
2022-10-26T03:05:32.906Z,84.10
2022-10-26T03:08:01.710Z,84.00
2022-10-26T03:10:30.917Z,84.00
2022-10-26T03:12:58.774Z,84.00
2022-10-26T03:15:26.633Z,83.90
2022-10-26T03:17:54.541Z,84.90
2022-10-26T03:20:22.461Z,83.90
2022-10-26T03:22:50.343Z,83.80
2022-10-26T03:25:18.280Z,83.80
2022-10-26T03:27:49.075Z,83.80
2022-10-26T03:30:17.227Z,83.80
2022-10-26T03:32:45.099Z,83.70
2022-10-26T03:35:12.966Z,83.70
2022-10-26T03:37:40.850Z,83.70
2022-10-26T03:40:10.469Z,83.70
2022-10-26T03:42:38.418Z,83.70
2022-10-26T03:45:08.784Z,83.70
2022-10-26T03:47:41.314Z,83.80
2022-10-26T03:50:10.082Z,83.90
2022-10-26T03:52:37.955Z,84.00
2022-10-26T03:55:06.668Z,84.00
2022-10-26T03:57:34.564Z,83.90
2022-10-26T04:00:03.312Z,83.90
2022-10-26T04:02:40.914Z,83.80
2022-10-26T04:05:10.240Z,83.70
2022-10-26T04:07:38.140Z,83.60
2022-10-26T04:10:07.049Z,83.50
2022-10-26T04:12:37.557Z,83.40
2022-10-26T04:15:06.945Z,83.30
2022-10-26T04:17:35.006Z,83.30
2022-10-26T04:20:04.650Z,83.20
2022-10-26T04:22:32.525Z,83.20
2022-10-26T04:25:00.391Z,83.10
2022-10-26T04:27:28.251Z,83.10
2022-10-26T04:29:56.153Z,83.10
2022-10-26T04:32:24.080Z,83.10
2022-10-26T04:34:54.271Z,83.00
2022-10-26T04:37:23.520Z,83.00
2022-10-26T04:39:51.412Z,82.90
2022-10-26T04:42:19.275Z,82.90
2022-10-26T04:44:47.149Z,82.90
2022-10-26T04:47:15.012Z,82.80
2022-10-26T04:49:42.896Z,82.80
2022-10-26T04:52:10.805Z,83.70
2022-10-26T04:54:40.038Z,82.80
2022-10-26T04:57:07.917Z,82.70
2022-10-26T04:59:35.797Z,82.70
2022-10-26T05:02:03.770Z,82.70
2022-10-26T05:04:31.732Z,82.60
2022-10-26T05:06:59.641Z,82.60
2022-10-26T05:09:27.572Z,82.60
2022-10-26T05:11:56.790Z,82.60
2022-10-26T05:14:24.691Z,82.60
2022-10-26T05:16:55.341Z,82.60
2022-10-26T05:19:23.260Z,82.70
2022-10-26T05:21:53.170Z,82.60
2022-10-26T05:24:21.175Z,82.50
2022-10-26T05:26:49.125Z,82.60
2022-10-26T05:29:18.386Z,82.50
2022-10-26T05:31:46.243Z,82.50
2022-10-26T05:34:14.211Z,82.30
2022-10-26T05:36:42.107Z,82.50
2022-10-26T05:39:09.960Z,82.50
2022-10-26T05:41:37.949Z,82.40
2022-10-26T05:44:06.035Z,82.40
2022-10-26T05:46:35.251Z,82.40
2022-10-26T05:49:03.145Z,82.60
2022-10-26T05:51:31.097Z,82.60
2022-10-26T05:53:59.017Z,82.70
2022-10-26T05:56:36.473Z,82.70
2022-10-26T05:59:04.872Z,82.60
2022-10-26T06:01:39.953Z,82.60
2022-10-26T06:04:13.579Z,82.60
2022-10-26T06:06:43.446Z,82.50
2022-10-26T06:09:11.948Z,82.50
2022-10-26T06:11:40.407Z,82.50
2022-10-26T06:14:09.357Z,82.40
2022-10-26T06:16:42.303Z,82.40
2022-10-26T06:19:16.456Z,82.50
2022-10-26T06:21:53.032Z,82.50
2022-10-26T06:24:23.486Z,82.40
2022-10-26T06:26:54.160Z,82.40
2022-10-26T06:29:25.965Z,82.30
2022-10-26T06:31:55.278Z,82.30
2022-10-26T06:34:26.193Z,82.30
2022-10-26T06:39:27.830Z,82.30
2022-10-26T06:41:56.295Z,82.30
2022-10-26T06:44:26.971Z,82.30
2022-10-26T06:47:00.723Z,82.40
2022-10-26T06:49:30.255Z,82.30
2022-10-26T06:52:00.014Z,82.40
2022-10-26T06:54:32.042Z,82.40
2022-10-26T06:57:00.587Z,82.40
2022-10-26T06:59:33.888Z,82.40
2022-10-26T07:02:06.368Z,82.40
2022-10-26T07:04:34.907Z,82.40
2022-10-26T07:07:02.816Z,82.40
2022-10-26T07:09:30.718Z,82.30
2022-10-26T07:11:58.661Z,82.40
2022-10-26T07:14:26.634Z,82.40
2022-10-26T07:16:54.618Z,82.60
2022-10-26T07:19:23.935Z,82.60
2022-10-26T07:21:51.837Z,82.70
2022-10-26T07:24:19.760Z,82.90
2022-10-26T07:26:47.704Z,82.90
2022-10-26T07:29:16.396Z,83.00
2022-10-26T07:31:44.351Z,83.80
2022-10-26T07:34:12.313Z,82.60
2022-10-26T07:36:41.563Z,82.40
2022-10-26T07:39:09.518Z,82.30
2022-10-26T07:41:37.476Z,82.30
2022-10-26T07:44:05.460Z,82.40
2022-10-26T07:46:33.342Z,82.40
2022-10-26T07:49:01.248Z,82.20
2022-10-26T07:51:29.522Z,82.20
2022-10-26T07:53:58.853Z,82.10
2022-10-26T07:56:26.878Z,82.00
2022-10-26T07:58:55.377Z,82.10
2022-10-26T08:01:23.586Z,82.20
2022-10-26T08:03:53.137Z,82.20
2022-10-26T08:06:21.035Z,82.30
2022-10-26T08:08:48.902Z,82.40
2022-10-26T08:11:18.308Z,82.40
2022-10-26T08:13:46.301Z,82.40
2022-10-26T08:16:14.258Z,82.40
2022-10-26T08:18:42.144Z,82.20
2022-10-26T08:21:15.637Z,82.20
2022-10-26T08:23:49.267Z,82.20
2022-10-26T08:26:18.572Z,82.10
2022-10-26T08:28:49.465Z,82.10
2022-10-26T08:31:17.346Z,82.10
2022-10-26T08:33:45.399Z,82.00
2022-10-26T08:36:14.620Z,82.00
2022-10-26T08:38:42.559Z,82.10
2022-10-26T08:41:11.602Z,82.10
2022-10-26T08:43:41.748Z,82.10
2022-10-26T08:46:12.588Z,82.10
2022-10-26T08:48:41.994Z,82.10
2022-10-26T08:51:11.880Z,82.10
2022-10-26T08:53:41.474Z,82.10
2022-10-26T08:56:13.968Z,82.20
2022-10-26T08:58:46.465Z,82.20
2022-10-26T09:01:14.588Z,82.10
2022-10-26T09:03:44.350Z,82.10
2022-10-26T09:06:22.214Z,82.10
2022-10-26T09:08:55.740Z,82.10
2022-10-26T09:11:29.359Z,82.10
2022-10-26T09:14:03.585Z,82.10
2022-10-26T09:16:34.007Z,82.00
2022-10-26T09:19:24.773Z,82.00
2022-10-26T09:21:54.528Z,82.00
2022-10-26T09:24:24.298Z,81.90
2022-10-26T09:26:55.497Z,81.90
2022-10-26T09:29:27.721Z,81.90
2022-10-26T09:31:55.794Z,82.00
2022-10-26T09:34:28.186Z,81.80
2022-10-26T09:36:56.879Z,81.90
2022-10-26T09:39:36.743Z,81.70
2022-10-26T09:42:08.007Z,81.60
2022-10-26T09:44:38.175Z,81.60
2022-10-26T09:47:07.645Z,81.60
2022-10-26T09:49:38.681Z,81.60
2022-10-26T09:52:06.725Z,81.50
2022-10-26T09:54:34.689Z,81.50
2022-10-26T09:57:02.752Z,81.50
2022-10-26T09:59:33.514Z,81.50
2022-10-26T10:02:03.042Z,81.50
2022-10-26T10:04:33.732Z,81.60
2022-10-26T10:07:13.766Z,81.50
2022-10-26T10:09:41.692Z,81.60
2022-10-26T10:12:19.737Z,81.50
2022-10-26T10:14:57.396Z,81.60
2022-10-26T10:17:26.656Z,81.60
2022-10-26T10:19:54.551Z,81.60
2022-10-26T10:22:25.652Z,81.80
2022-10-26T10:24:57.225Z,81.80
2022-10-26T10:27:25.324Z,81.90
2022-10-26T10:29:58.460Z,81.90
2022-10-26T10:32:35.410Z,81.90
2022-10-26T10:35:23.054Z,82.10
2022-10-26T10:37:50.889Z,82.00
2022-10-26T10:40:19.687Z,81.90
2022-10-26T10:42:48.310Z,81.90
2022-10-26T10:45:20.415Z,82.10
2022-10-26T10:48:00.612Z,82.10
2022-10-26T10:50:28.464Z,82.10
2022-10-26T10:53:11.634Z,82.10
2022-10-26T10:55:39.560Z,82.00
2022-10-26T10:58:12.119Z,82.00
2022-10-26T11:00:40.041Z,82.10
2022-10-26T11:03:34.477Z,82.00
2022-10-26T11:06:12.213Z,82.10
2022-10-26T11:08:42.568Z,81.90
2022-10-26T11:11:12.773Z,81.90
2022-10-26T11:13:42.617Z,81.80
2022-10-26T11:16:13.393Z,81.80
2022-10-26T11:18:44.796Z,81.70
2022-10-26T11:21:18.637Z,81.80
2022-10-26T11:23:47.759Z,81.50
2022-10-26T11:26:16.907Z,81.00
2022-10-26T11:28:48.549Z,80.50
2022-10-26T11:31:18.523Z,79.70
2022-10-26T11:33:50.587Z,79.20
2022-10-26T11:36:21.792Z,78.80
2022-10-26T11:38:57.339Z,78.20
2022-10-26T11:41:27.005Z,78.10
2022-10-26T11:43:56.200Z,77.70
2022-10-26T11:46:25.372Z,77.40
2022-10-26T11:48:56.746Z,77.20
2022-10-26T11:51:36.331Z,77.10
2022-10-26T11:54:06.911Z,77.00
2022-10-26T11:56:36.990Z,76.70
2022-10-26T11:59:04.949Z,76.40
2022-10-26T12:01:32.878Z,76.10
2022-10-26T12:04:02.205Z,75.90
2022-10-26T12:06:32.440Z,75.60
2022-10-26T12:09:02.744Z,75.50
2022-10-26T12:11:36.767Z,76.30
2022-10-26T12:14:07.066Z,75.10
2022-10-26T12:16:43.784Z,75.10
2022-10-26T12:19:15.778Z,75.10
2022-10-26T12:21:44.242Z,75.00
2022-10-26T12:24:35.087Z,74.70
2022-10-26T12:27:03.304Z,74.20
2022-10-26T12:29:46.095Z,74.10
2022-10-26T12:32:50.930Z,74.30
2022-10-26T12:35:39.128Z,74.10
2022-10-26T12:38:49.500Z,73.60
2022-10-26T12:41:24.853Z,73.70
2022-10-26T12:43:58.773Z,73.30
2022-10-26T12:46:45.350Z,73.60
2022-10-26T12:49:57.151Z,73.80
2022-10-26T12:52:40.603Z,73.30
2022-10-26T12:55:44.310Z,72.90
2022-10-26T12:58:44.548Z,72.80
2022-10-26T13:01:54.325Z,73.10
2022-10-26T13:05:05.993Z,72.90
2022-10-26T13:07:37.598Z,72.40
2022-10-26T13:10:06.961Z,73.20
2022-10-26T13:12:39.939Z,72.60
2022-10-26T13:15:20.810Z,73.00
2022-10-26T13:17:58.535Z,73.20
2022-10-26T13:20:26.460Z,73.30
2022-10-26T13:22:55.777Z,73.50
2022-10-26T13:25:24.889Z,73.60
2022-10-26T13:28:01.116Z,73.70
2022-10-26T13:30:48.001Z,73.80
2022-10-26T13:33:30.077Z,74.00
2022-10-26T13:36:00.316Z,74.10
2022-10-26T13:38:33.318Z,74.10
2022-10-26T13:41:08.115Z,74.30
2022-10-26T13:43:37.169Z,74.40
2022-10-26T13:46:05.154Z,74.50
2022-10-26T13:48:37.949Z,74.60
2022-10-26T13:51:11.815Z,74.70
2022-10-26T13:53:43.906Z,74.80
2022-10-26T13:56:18.741Z,75.00
2022-10-26T13:58:48.755Z,74.90
2022-10-26T14:01:18.120Z,75.00
2022-10-26T14:03:46.062Z,75.10
2022-10-26T14:06:17.684Z,75.10
2022-10-26T14:08:49.492Z,75.30
2022-10-26T14:11:19.400Z,75.30
2022-10-26T14:13:47.325Z,75.40
2022-10-26T14:16:17.433Z,75.50
2022-10-26T14:18:46.533Z,75.60
2022-10-26T14:21:16.197Z,75.60
2022-10-26T14:23:49.867Z,75.80
2022-10-26T14:26:22.036Z,75.80
2022-10-26T14:28:51.593Z,75.90
2022-10-26T14:31:24.807Z,76.00
2022-10-26T14:33:52.876Z,76.00
2022-10-26T14:36:21.994Z,76.10
2022-10-26T14:38:53.171Z,76.10
2022-10-26T14:41:21.089Z,76.20
2022-10-26T14:43:48.943Z,76.20
2022-10-26T14:46:17.502Z,76.30
2022-10-26T14:48:52.802Z,76.30
2022-10-26T14:51:21.584Z,76.40
2022-10-26T14:53:51.866Z,76.60
2022-10-26T14:56:29.809Z,76.70
2022-10-26T14:58:58.123Z,76.70
2022-10-26T15:01:36.699Z,76.70
2022-10-26T15:04:05.888Z,76.70
2022-10-26T15:06:42.002Z,76.70
2022-10-26T15:09:39.268Z,76.70
2022-10-26T15:12:07.495Z,76.90
2022-10-26T15:14:35.406Z,77.90
2022-10-26T15:17:03.440Z,77.00
2022-10-26T15:19:31.369Z,77.00
2022-10-26T15:21:59.424Z,77.00
2022-10-26T15:24:32.050Z,77.00
2022-10-26T15:27:03.816Z,77.10
2022-10-26T15:29:50.183Z,77.00
2022-10-26T15:32:29.218Z,77.10
2022-10-26T15:35:22.449Z,77.10
2022-10-26T15:37:51.164Z,77.20
2022-10-26T15:40:19.208Z,77.60
2022-10-26T15:42:50.245Z,77.80
2022-10-26T15:45:19.959Z,77.90
2022-10-26T15:47:48.077Z,78.00
2022-10-26T15:50:16.785Z,77.90
2022-10-26T15:52:48.227Z,77.80
2022-10-26T15:55:17.458Z,77.90
2022-10-26T15:57:45.537Z,77.90
2022-10-26T16:00:18.076Z,77.80
2022-10-26T16:02:46.221Z,77.60
2022-10-26T16:05:16.019Z,77.60
2022-10-26T16:07:44.642Z,77.60
2022-10-26T16:10:23.185Z,77.60
2022-10-26T16:12:51.129Z,77.60
2022-10-26T16:15:21.792Z,77.60
2022-10-26T16:17:50.251Z,77.60
2022-10-26T16:20:20.080Z,77.70
2022-10-26T16:22:48.961Z,77.60
2022-10-26T16:25:17.891Z,78.20
2022-10-26T16:27:46.074Z,78.00
2022-10-26T16:30:14.872Z,78.10
2022-10-26T16:32:44.135Z,78.20
2022-10-26T16:35:12.034Z,78.20
2022-10-26T16:37:39.953Z,78.40
2022-10-26T16:40:09.352Z,78.40
2022-10-26T16:42:37.258Z,78.50
2022-10-26T16:45:06.047Z,78.40
2022-10-26T16:47:35.501Z,78.50
2022-10-26T16:50:05.506Z,78.50
2022-10-26T16:52:34.361Z,78.50
2022-10-26T16:55:02.349Z,78.50
2022-10-26T16:57:30.237Z,78.60
2022-10-26T16:59:58.443Z,78.60
2022-10-26T17:02:26.410Z,78.50
2022-10-26T17:04:54.366Z,78.50
2022-10-26T17:07:23.596Z,78.50
2022-10-26T17:09:51.445Z,78.40
2022-10-26T17:12:19.431Z,78.40
2022-10-26T17:14:47.627Z,78.40
2022-10-26T17:17:15.522Z,78.30
2022-10-26T17:19:43.482Z,78.40
2022-10-26T17:22:11.394Z,78.30
2022-10-26T17:24:40.700Z,78.20
2022-10-26T17:27:08.649Z,78.20
2022-10-26T17:29:36.533Z,78.20
2022-10-26T17:32:04.503Z,78.20
2022-10-26T17:34:32.435Z,78.20
2022-10-26T17:37:00.373Z,78.20
2022-10-26T17:39:29.451Z,78.20
2022-10-26T17:41:58.693Z,78.20
2022-10-26T17:44:26.569Z,78.10
2022-10-26T17:46:54.445Z,78.10
2022-10-26T17:49:24.912Z,78.10
2022-10-26T17:51:54.812Z,78.30
2022-10-26T17:54:23.005Z,79.00
2022-10-26T17:56:50.905Z,80.00
2022-10-26T17:59:20.147Z,80.60
2022-10-26T18:01:48.118Z,80.80
2022-10-26T18:04:16.071Z,81.00
2022-10-26T18:06:43.989Z,80.90
2022-10-26T18:09:11.979Z,81.00
2022-10-26T18:11:40.014Z,81.20
2022-10-26T18:14:07.962Z,81.30
2022-10-26T18:16:37.184Z,81.30
2022-10-26T18:19:05.394Z,81.30
2022-10-26T18:21:34.228Z,81.30
2022-10-26T18:24:02.173Z,81.30
2022-10-26T18:26:30.631Z,81.50
2022-10-26T18:28:58.678Z,81.50
2022-10-26T18:31:27.293Z,81.30
2022-10-26T18:34:00.213Z,82.20
2022-10-26T18:36:28.400Z,81.30
2022-10-26T18:38:56.704Z,81.20
2022-10-26T18:41:25.023Z,81.30
2022-10-26T18:43:54.079Z,81.20
2022-10-26T18:46:24.196Z,81.30
2022-10-26T18:48:52.271Z,81.30
2022-10-26T18:51:22.425Z,81.20
2022-10-26T18:53:50.506Z,81.20
2022-10-26T18:56:20.008Z,81.00
2022-10-26T18:58:50.289Z,81.00
2022-10-26T19:01:19.284Z,80.90
2022-10-26T19:03:48.501Z,81.00
2022-10-26T19:06:17.583Z,80.90
2022-10-26T19:08:48.240Z,81.20
2022-10-26T19:11:17.171Z,80.90
2022-10-26T19:13:45.414Z,80.90
2022-10-26T19:16:21.780Z,80.90
2022-10-26T19:18:56.712Z,80.90
2022-10-26T19:21:25.172Z,80.90
2022-10-26T19:23:55.267Z,80.90
2022-10-26T19:26:24.674Z,80.90
2022-10-26T19:28:56.171Z,81.00
2022-10-26T19:31:27.099Z,81.20
2022-10-26T19:33:56.386Z,81.30
2022-10-26T19:36:24.318Z,81.30
2022-10-26T19:38:52.319Z,81.40
2022-10-26T19:41:22.442Z,81.50
2022-10-26T19:43:50.514Z,81.50
2022-10-26T19:46:19.168Z,81.50
2022-10-26T19:48:49.405Z,81.50
2022-10-26T19:51:17.405Z,81.50
2022-10-26T19:53:45.321Z,81.40
2022-10-26T19:56:13.437Z,81.30
2022-10-26T19:58:43.360Z,81.30
2022-10-26T20:01:11.866Z,81.30
2022-10-26T20:03:39.847Z,81.30
2022-10-26T20:06:11.301Z,81.30
2022-10-26T20:08:39.415Z,81.20
2022-10-26T20:11:10.183Z,81.20
2022-10-26T20:13:42.472Z,81.30
2022-10-26T20:16:10.528Z,81.50
2022-10-26T20:18:41.322Z,81.50
2022-10-26T20:21:13.981Z,81.50
2022-10-26T20:23:42.505Z,81.60
2022-10-26T20:26:11.958Z,81.40
2022-10-26T20:28:46.626Z,80.70
2022-10-26T20:31:14.543Z,80.00
2022-10-26T20:33:42.932Z,80.00
2022-10-26T20:36:10.875Z,80.10
2022-10-26T20:38:40.052Z,79.70
2022-10-26T20:41:10.589Z,78.90
2022-10-26T20:43:39.109Z,79.00
2022-10-26T20:46:10.416Z,79.60
2022-10-26T20:48:39.163Z,79.70
2022-10-26T20:51:08.414Z,79.50
2022-10-26T20:53:37.142Z,79.20
2022-10-26T20:56:07.078Z,79.00
2022-10-26T20:58:41.583Z,78.90
2022-10-26T21:01:16.365Z,78.60
2022-10-26T21:03:44.493Z,78.40
2022-10-26T21:06:12.558Z,78.00
2022-10-26T21:08:40.442Z,77.80
2022-10-26T21:11:08.298Z,77.50
2022-10-26T21:13:36.231Z,77.30
2022-10-26T21:16:05.250Z,77.30
2022-10-26T21:18:34.563Z,77.50
2022-10-26T21:21:02.497Z,77.20
2022-10-26T21:23:31.510Z,77.20
2022-10-26T21:25:59.426Z,76.90
2022-10-26T21:28:27.511Z,76.70
2022-10-26T21:30:55.402Z,76.50
2022-10-26T21:33:30.284Z,76.50
2022-10-26T21:35:59.638Z,76.40
2022-10-26T21:38:27.885Z,76.30
2022-10-26T21:41:03.932Z,76.30
2022-10-26T21:43:31.926Z,76.20
2022-10-26T21:46:03.555Z,76.00
2022-10-26T21:48:31.954Z,76.00
2022-10-26T21:51:01.920Z,75.90
2022-10-26T21:53:30.069Z,75.70
2022-10-26T21:56:01.761Z,75.70
2022-10-26T21:58:29.756Z,76.20
2022-10-26T22:01:05.483Z,76.20
2022-10-26T22:03:33.763Z,76.30
2022-10-26T22:06:03.050Z,76.30
2022-10-26T22:08:31.011Z,76.30
2022-10-26T22:10:58.940Z,76.30
2022-10-26T22:13:26.824Z,76.30
2022-10-26T22:16:04.633Z,76.50
2022-10-26T22:18:34.863Z,76.60
2022-10-26T22:21:04.348Z,77.10
2022-10-26T22:23:33.885Z,77.30
2022-10-26T22:26:05.265Z,77.30
2022-10-26T22:28:36.275Z,77.50
2022-10-26T22:31:05.452Z,77.70
2022-10-26T22:33:33.954Z,77.90
2022-10-26T22:36:07.205Z,78.10
2022-10-26T22:38:35.205Z,78.40
2022-10-26T22:41:03.176Z,78.50
2022-10-26T22:43:31.190Z,78.60
2022-10-26T22:46:02.525Z,78.70
2022-10-26T22:48:30.522Z,78.80
2022-10-26T22:50:58.443Z,78.90
2022-10-26T22:53:27.673Z,79.00
2022-10-26T22:55:55.584Z,79.10
2022-10-26T22:58:23.506Z,79.20
2022-10-26T23:00:51.655Z,79.30
2022-10-26T23:03:19.560Z,79.50
2022-10-26T23:05:47.817Z,79.40
2022-10-26T23:08:15.768Z,79.30
2022-10-26T23:10:45.004Z,79.30
2022-10-26T23:13:12.899Z,79.60
2022-10-26T23:15:40.785Z,79.60
2022-10-26T23:18:08.672Z,79.70
2022-10-26T23:20:36.800Z,79.80
2022-10-26T23:23:04.735Z,79.90
2022-10-26T23:25:32.655Z,79.90
2022-10-26T23:28:01.911Z,80.00
2022-10-26T23:30:29.849Z,80.00
2022-10-26T23:32:57.785Z,80.10
2022-10-26T23:35:25.728Z,80.10
2022-10-26T23:37:53.667Z,80.00
2022-10-26T23:40:21.570Z,80.10
2022-10-26T23:42:49.835Z,80.10
2022-10-26T23:45:19.777Z,80.00
2022-10-26T23:47:48.011Z,80.00
2022-10-26T23:50:16.123Z,80.30
2022-10-26T23:52:47.818Z,80.50
2022-10-26T23:55:15.927Z,80.60
2022-10-26T23:57:43.863Z,80.70
